createdAt,value
2023-09-27T00:01:29.746Z,100969.84
2023-09-27T00:03:57.421Z,100967.50
2023-09-27T00:06:25.241Z,100979.59
2023-09-27T00:08:52.682Z,100977.31
2023-09-27T00:11:20.596Z,100963.78
2023-09-27T00:13:48.162Z,100971.50
2023-09-27T00:16:15.486Z,100977.59
2023-09-27T00:18:42.817Z,100979.59
2023-09-27T00:21:10.096Z,100964.13
2023-09-27T00:23:37.355Z,100970.28
2023-09-27T00:26:04.939Z,100966.91
2023-09-27T00:28:32.298Z,100968.31
2023-09-27T00:30:59.646Z,100965.34
2023-09-27T00:33:27.028Z,100963.78
2023-09-27T00:35:54.605Z,100970.38
2023-09-27T00:38:21.936Z,100965.28
2023-09-27T00:40:49.446Z,100965.25
2023-09-27T00:43:29.681Z,100964.47
2023-09-27T00:46:07.352Z,100959.44
2023-09-27T00:48:36.303Z,100960.28
2023-09-27T00:51:03.738Z,100956.31
2023-09-27T00:53:33.319Z,100962.25
2023-09-27T00:56:01.311Z,100961.56
2023-09-27T00:58:28.790Z,100951.47
2023-09-27T01:00:56.078Z,100963.25
2023-09-27T01:03:23.405Z,100955.34
2023-09-27T01:05:50.805Z,100947.25
2023-09-27T01:08:18.211Z,100947.16
2023-09-27T01:10:46.241Z,100950.34
2023-09-27T01:13:13.735Z,100957.44
2023-09-27T01:15:42.175Z,100941.88
2023-09-27T01:18:09.727Z,100958.31
2023-09-27T01:20:37.138Z,100962.97
2023-09-27T01:23:05.027Z,100955.16
2023-09-27T01:25:39.117Z,100967.44
2023-09-27T01:28:08.583Z,100945.31
2023-09-27T01:30:36.454Z,100956.72
2023-09-27T01:33:08.265Z,100949.47
2023-09-27T01:35:45.095Z,100966.13
2023-09-27T01:38:13.037Z,100962.16
2023-09-27T01:40:44.680Z,100961.97
2023-09-27T01:43:12.714Z,100954.44
2023-09-27T01:45:40.155Z,100957.75
2023-09-27T01:48:07.746Z,100956.25
2023-09-27T01:50:35.695Z,100955.13
2023-09-27T01:53:04.374Z,100951.84
2023-09-27T01:55:32.442Z,100953.34
2023-09-27T01:58:01.264Z,100947.13
2023-09-27T02:00:28.935Z,100949.94
2023-09-27T02:02:57.688Z,100957.09
2023-09-27T02:05:25.908Z,100965.22
2023-09-27T02:07:53.365Z,100957.75
2023-09-27T02:10:21.690Z,100969.25
2023-09-27T02:12:48.988Z,100961.50
2023-09-27T02:15:16.664Z,100964.91
2023-09-27T02:17:44.255Z,100957.72
2023-09-27T02:20:13.679Z,100966.09
2023-09-27T02:22:41.723Z,100962.75
2023-09-27T02:25:10.852Z,100971.34
2023-09-27T02:27:41.844Z,100954.38
2023-09-27T02:30:12.580Z,100958.00
2023-09-27T02:32:43.797Z,100966.50
2023-09-27T02:35:12.085Z,100962.31
2023-09-27T02:37:41.071Z,100971.38
2023-09-27T02:40:15.787Z,100964.38
2023-09-27T02:42:44.504Z,100974.47
2023-09-27T02:45:12.673Z,100975.50
2023-09-27T02:47:40.882Z,100976.81
2023-09-27T02:50:11.544Z,100971.50
2023-09-27T02:52:42.173Z,100981.03
2023-09-27T02:55:10.643Z,100973.94
2023-09-27T02:57:39.759Z,100969.19
2023-09-27T03:00:07.904Z,100971.44
2023-09-27T03:02:36.135Z,100972.34
2023-09-27T03:05:08.161Z,100973.97
2023-09-27T03:07:35.437Z,100978.25
2023-09-27T03:10:09.844Z,100978.03
2023-09-27T03:12:39.743Z,100980.75
2023-09-27T03:15:12.670Z,100973.50
2023-09-27T03:17:43.683Z,100976.00
2023-09-27T03:20:20.852Z,100975.53
2023-09-27T03:22:49.388Z,100974.41
2023-09-27T03:25:20.063Z,100977.44
2023-09-27T03:27:47.926Z,100973.06
2023-09-27T03:30:16.180Z,100976.22
2023-09-27T03:32:43.925Z,100977.56
2023-09-27T03:35:11.270Z,100982.34
2023-09-27T03:37:38.583Z,100984.16
2023-09-27T03:40:14.699Z,100980.50
2023-09-27T03:42:46.308Z,100979.41
2023-09-27T03:45:15.562Z,100978.72
2023-09-27T03:47:46.970Z,100978.50
2023-09-27T03:50:18.829Z,100981.22
2023-09-27T03:52:46.181Z,100978.16
2023-09-27T03:55:13.698Z,100973.75
2023-09-27T03:57:41.371Z,100982.81
2023-09-27T04:00:15.043Z,100979.97
2023-09-27T04:02:43.901Z,100978.06
2023-09-27T04:05:12.211Z,100980.09
2023-09-27T04:07:40.491Z,100979.97
2023-09-27T04:10:09.110Z,100974.41
2023-09-27T04:12:36.533Z,100979.06
2023-09-27T04:15:07.926Z,100981.88
2023-09-27T04:17:35.330Z,100988.13
2023-09-27T04:20:07.973Z,100990.50
2023-09-27T04:22:35.439Z,100988.00
2023-09-27T04:25:02.993Z,100994.56
2023-09-27T04:27:30.264Z,100993.56
2023-09-27T04:29:57.560Z,100997.31
2023-09-27T04:32:26.596Z,100999.34
2023-09-27T04:34:53.868Z,100989.84
2023-09-27T04:37:21.134Z,100998.19
2023-09-27T04:39:48.492Z,100998.63
2023-09-27T04:42:15.780Z,100998.53
2023-09-27T04:44:43.240Z,100998.53
2023-09-27T04:47:10.647Z,101001.13
2023-09-27T04:49:37.972Z,101012.44
2023-09-27T04:52:05.272Z,101011.09
2023-09-27T04:54:33.046Z,101007.25
2023-09-27T04:57:00.331Z,101013.81
2023-09-27T04:59:27.655Z,101012.88
2023-09-27T05:01:54.942Z,101008.38
2023-09-27T05:04:22.559Z,101014.81
2023-09-27T05:06:49.976Z,101007.31
2023-09-27T05:09:19.260Z,101004.81
2023-09-27T05:11:48.073Z,101011.38
2023-09-27T05:14:15.612Z,101012.03
2023-09-27T05:16:43.040Z,101016.56
2023-09-27T05:19:10.440Z,101023.22
2023-09-27T05:21:40.549Z,101020.69
2023-09-27T05:24:08.829Z,101018.19
2023-09-27T05:26:36.195Z,101023.91
2023-09-27T05:29:03.782Z,101005.03
2023-09-27T05:31:31.207Z,101024.75
2023-09-27T05:33:58.587Z,101037.06
2023-09-27T05:36:25.872Z,101018.91
2023-09-27T05:38:53.393Z,101024.78
2023-09-27T05:41:20.991Z,101031.56
2023-09-27T05:43:48.349Z,101032.16
2023-09-27T05:46:15.716Z,101038.25
2023-09-27T05:48:43.051Z,101031.59
2023-09-27T05:51:10.760Z,101029.69
2023-09-27T05:53:38.049Z,101043.81
2023-09-27T05:56:05.451Z,101033.81
2023-09-27T05:58:37.098Z,101041.50
2023-09-27T06:01:06.120Z,101053.03
2023-09-27T06:03:33.617Z,101044.06
2023-09-27T06:06:01.049Z,101049.50
2023-09-27T06:08:28.409Z,101055.97
2023-09-27T06:10:56.914Z,101055.78
2023-09-27T06:13:25.130Z,101067.34
2023-09-27T06:15:52.613Z,101063.75
2023-09-27T06:18:20.419Z,101067.06
2023-09-27T06:20:48.740Z,101056.19
2023-09-27T06:23:16.094Z,101070.06
2023-09-27T06:25:44.980Z,101072.94
2023-09-27T06:28:14.646Z,101077.03
2023-09-27T06:30:42.252Z,101076.47
2023-09-27T06:33:10.480Z,101072.78
2023-09-27T06:35:38.079Z,101075.84
2023-09-27T06:38:06.929Z,101064.75
2023-09-27T06:40:34.259Z,101058.72
2023-09-27T06:43:02.059Z,101069.50
2023-09-27T06:45:30.128Z,101077.47
2023-09-27T06:47:57.771Z,101070.22
2023-09-27T06:50:25.313Z,101069.19
2023-09-27T06:52:59.957Z,101081.91
2023-09-27T06:55:34.658Z,101076.53
2023-09-27T06:58:02.008Z,101084.25
2023-09-27T07:00:29.417Z,101078.16
2023-09-27T07:02:56.955Z,101088.47
2023-09-27T07:05:24.733Z,101085.53
2023-09-27T07:07:52.106Z,101081.72
2023-09-27T07:10:19.501Z,101089.00
2023-09-27T07:12:47.518Z,101082.09
2023-09-27T07:15:15.471Z,101082.97
2023-09-27T07:17:44.928Z,101077.22
2023-09-27T07:20:39.046Z,101079.31
2023-09-27T07:23:07.657Z,101072.41
2023-09-27T07:25:39.263Z,101083.84
2023-09-27T07:28:06.946Z,101084.34
2023-09-27T07:30:34.984Z,101082.50
2023-09-27T07:33:07.422Z,101086.09
2023-09-27T07:35:36.340Z,101080.69
2023-09-27T07:38:03.978Z,101081.97
2023-09-27T07:40:31.533Z,101091.84
2023-09-27T07:42:59.903Z,101091.09
2023-09-27T07:45:31.453Z,101090.72
2023-09-27T07:47:58.949Z,101089.22
2023-09-27T07:50:32.587Z,101093.13
2023-09-27T07:53:00.601Z,101095.59
2023-09-27T07:55:28.217Z,101097.16
2023-09-27T07:57:55.715Z,101092.13
2023-09-27T08:00:29.597Z,101094.53
2023-09-27T08:02:59.433Z,101100.09
2023-09-27T08:05:27.005Z,101089.09
2023-09-27T08:07:54.272Z,101093.09
2023-09-27T08:10:22.514Z,101095.44
2023-09-27T08:12:49.932Z,101091.50
2023-09-27T08:15:19.140Z,101102.16
2023-09-27T08:17:48.731Z,101092.31
2023-09-27T08:20:16.610Z,101091.53
2023-09-27T08:22:44.032Z,101097.06
2023-09-27T08:25:18.437Z,101095.09
2023-09-27T08:27:46.133Z,101095.53
2023-09-27T08:30:13.985Z,101081.38
2023-09-27T08:32:43.030Z,101070.38
2023-09-27T08:35:11.109Z,101077.47
2023-09-27T08:37:38.593Z,101076.69
2023-09-27T08:40:08.563Z,101083.34
2023-09-27T08:42:36.001Z,101072.72
2023-09-27T08:45:04.331Z,101073.47
2023-09-27T08:47:32.037Z,101069.53
2023-09-27T08:50:01.016Z,101068.34
2023-09-27T08:52:29.331Z,101071.91
2023-09-27T08:54:56.604Z,101066.41
2023-09-27T08:57:25.386Z,101065.56
2023-09-27T08:59:53.060Z,101066.34
2023-09-27T09:02:20.794Z,101068.72
2023-09-27T09:04:48.168Z,101060.81
2023-09-27T09:07:15.870Z,101061.59
2023-09-27T09:09:43.225Z,101054.47
2023-09-27T09:12:10.999Z,101052.84
2023-09-27T09:14:50.842Z,101052.78
2023-09-27T09:17:20.253Z,101047.56
2023-09-27T09:20:16.713Z,101049.88
2023-09-27T09:22:47.777Z,101054.97
2023-09-27T09:25:15.240Z,101058.91
2023-09-27T09:27:44.992Z,101060.47
2023-09-27T09:30:13.030Z,101050.13
2023-09-27T09:32:52.976Z,101045.41
2023-09-27T09:35:33.210Z,101042.16
2023-09-27T09:38:02.784Z,101043.56
2023-09-27T09:40:31.528Z,101043.50
2023-09-27T09:43:01.034Z,101038.72
2023-09-27T09:45:30.201Z,101044.97
2023-09-27T09:47:58.777Z,101042.44
2023-09-27T09:50:28.311Z,101039.19
2023-09-27T09:52:58.655Z,101036.66
2023-09-27T09:55:48.545Z,101036.97
2023-09-27T09:58:14.818Z,101036.44
2023-09-27T10:00:43.556Z,101037.88
2023-09-27T10:03:11.002Z,101028.16
2023-09-27T10:05:39.558Z,101031.56
2023-09-27T10:08:07.416Z,101034.00
2023-09-27T10:10:35.465Z,101036.84
2023-09-27T10:13:05.461Z,101036.59
2023-09-27T10:15:34.790Z,101026.81
2023-09-27T10:18:23.884Z,101028.06
2023-09-27T10:21:06.537Z,101026.78
2023-09-27T10:23:49.138Z,101023.72
2023-09-27T10:26:34.480Z,101011.88
2023-09-27T10:29:15.239Z,101009.81
2023-09-27T10:31:58.120Z,101014.94
2023-09-27T10:34:37.480Z,101007.09
2023-09-27T10:37:17.931Z,101002.22
2023-09-27T10:40:23.806Z,101007.19
2023-09-27T10:42:51.177Z,100998.03
2023-09-27T10:45:18.876Z,100998.97
2023-09-27T10:47:48.111Z,100988.94
2023-09-27T10:50:17.828Z,100988.00
2023-09-27T10:52:45.355Z,100983.91
2023-09-27T10:55:13.538Z,100975.97
2023-09-27T10:57:41.485Z,100983.47
2023-09-27T11:00:12.640Z,100972.88
2023-09-27T11:02:40.310Z,100969.25
2023-09-27T11:05:09.064Z,100964.84
2023-09-27T11:07:43.812Z,100949.59
2023-09-27T11:10:11.368Z,100958.50
2023-09-27T11:12:38.747Z,100956.47
2023-09-27T11:15:07.023Z,100960.03
2023-09-27T11:17:34.416Z,100951.09
2023-09-27T11:20:11.904Z,100944.94
2023-09-27T11:22:39.265Z,100936.72
2023-09-27T11:25:26.292Z,100930.81
2023-09-27T11:27:53.657Z,100943.75
2023-09-27T11:30:27.572Z,100942.72
2023-09-27T11:32:55.784Z,100946.16
2023-09-27T11:35:25.438Z,100944.94
2023-09-27T11:38:13.400Z,100943.66
2023-09-27T11:40:44.123Z,100936.31
2023-09-27T11:43:13.647Z,100931.59
2023-09-27T11:45:48.994Z,100930.75
2023-09-27T11:48:17.486Z,100922.41
2023-09-27T11:50:45.011Z,100921.22
2023-09-27T11:53:13.856Z,100931.56
2023-09-27T11:55:42.487Z,100913.84
2023-09-27T11:58:10.267Z,100917.72
2023-09-27T12:00:37.815Z,100907.91
2023-09-27T12:03:06.057Z,100912.06
2023-09-27T12:05:39.249Z,100910.94
2023-09-27T12:08:06.965Z,100910.41
2023-09-27T12:10:34.331Z,100910.63
2023-09-27T12:13:01.744Z,100902.84
2023-09-27T12:15:29.490Z,100902.41
2023-09-27T12:17:57.052Z,100902.69
2023-09-27T12:22:59.781Z,100886.78
2023-09-27T12:25:28.223Z,100888.44
2023-09-27T12:27:55.611Z,100881.13
2023-09-27T12:30:22.880Z,100885.53
2023-09-27T12:32:52.477Z,100882.53
2023-09-27T12:35:21.469Z,100870.88
2023-09-27T12:37:49.471Z,100872.44
2023-09-27T12:40:16.978Z,100871.47
2023-09-27T12:42:44.339Z,100874.38
2023-09-27T12:45:11.837Z,100862.66
2023-09-27T12:47:39.280Z,100855.53
2023-09-27T12:50:07.905Z,100859.09
2023-09-27T12:52:35.808Z,100853.22
2023-09-27T12:55:03.347Z,100852.22
2023-09-27T12:57:30.627Z,100857.19
2023-09-27T12:59:58.121Z,100844.41
2023-09-27T13:02:28.706Z,100846.09
2023-09-27T13:04:56.097Z,100842.44
2023-09-27T13:07:23.422Z,100833.09
2023-09-27T13:09:51.484Z,100827.59
2023-09-27T13:12:18.907Z,100826.88
2023-09-27T13:14:46.568Z,100818.66
2023-09-27T13:17:13.900Z,100819.31
2023-09-27T13:19:41.270Z,100825.44
2023-09-27T13:22:08.618Z,100816.31
2023-09-27T13:24:35.949Z,100820.44
2023-09-27T13:27:03.221Z,100819.44
2023-09-27T13:29:30.592Z,100821.13
2023-09-27T13:31:58.491Z,100818.00
2023-09-27T13:34:25.736Z,100814.13
2023-09-27T13:36:53.171Z,100818.53
2023-09-27T13:39:26.316Z,100809.06
2023-09-27T13:41:53.913Z,100813.69
2023-09-27T13:44:21.380Z,100804.16
2023-09-27T13:46:50.510Z,100812.31
2023-09-27T13:49:18.349Z,100805.63
2023-09-27T13:51:45.634Z,100809.81
2023-09-27T13:54:15.717Z,100812.22
2023-09-27T13:56:43.155Z,100805.44
2023-09-27T13:59:10.465Z,100808.66
2023-09-27T14:01:38.173Z,100796.94
2023-09-27T14:04:05.768Z,100795.06
2023-09-27T14:06:33.105Z,100789.22
2023-09-27T14:09:00.417Z,100793.09
2023-09-27T14:11:27.873Z,100793.97
2023-09-27T14:13:55.333Z,100791.03
2023-09-27T14:16:23.005Z,100789.94
2023-09-27T14:18:50.359Z,100789.91
2023-09-27T14:21:17.794Z,100779.81
2023-09-27T14:23:45.589Z,100777.13
2023-09-27T14:26:13.109Z,100788.47
2023-09-27T14:28:40.569Z,100777.81
2023-09-27T14:31:07.979Z,100775.81
2023-09-27T14:33:36.464Z,100773.72
2023-09-27T14:36:05.325Z,100776.75
2023-09-27T14:38:35.794Z,100775.03
2023-09-27T14:41:12.214Z,100773.66
2023-09-27T14:43:39.866Z,100772.28
2023-09-27T14:46:11.676Z,100767.16
2023-09-27T14:48:39.673Z,100768.06
2023-09-27T14:51:09.116Z,100778.06
2023-09-27T14:53:41.899Z,100758.72
2023-09-27T14:56:09.639Z,100766.78
2023-09-27T14:58:37.030Z,100769.09
2023-09-27T15:01:05.345Z,100756.22
2023-09-27T15:03:33.560Z,100766.91
2023-09-27T15:06:04.712Z,100766.69
2023-09-27T15:08:32.106Z,100768.31
2023-09-27T15:10:59.571Z,100758.50
2023-09-27T15:13:27.667Z,100748.38
2023-09-27T15:15:55.496Z,100764.66
2023-09-27T15:18:25.749Z,100762.75
2023-09-27T15:20:54.880Z,100759.09
2023-09-27T15:23:22.362Z,100758.16
2023-09-27T15:25:50.131Z,100763.75
2023-09-27T15:28:17.742Z,100764.78
2023-09-27T15:30:45.214Z,100758.59
2023-09-27T15:33:12.661Z,100753.31
2023-09-27T15:35:40.281Z,100758.50
2023-09-27T15:38:08.009Z,100759.19
2023-09-27T15:40:35.469Z,100758.78
2023-09-27T15:43:02.915Z,100759.16
2023-09-27T15:45:31.155Z,100747.97
2023-09-27T15:47:58.793Z,100758.06
2023-09-27T15:50:27.264Z,100755.53
2023-09-27T15:52:54.605Z,100757.69
2023-09-27T15:55:21.932Z,100750.09
2023-09-27T15:57:49.300Z,100754.69
2023-09-27T16:00:17.500Z,100758.81
2023-09-27T16:02:45.926Z,100751.44
2023-09-27T16:05:13.646Z,100739.75
2023-09-27T16:07:41.297Z,100751.66
2023-09-27T16:10:10.225Z,100759.66
2023-09-27T16:12:37.771Z,100755.03
2023-09-27T16:15:07.882Z,100750.00
2023-09-27T16:17:36.775Z,100751.22
2023-09-27T16:20:06.260Z,100759.88
2023-09-27T16:22:33.612Z,100760.31
2023-09-27T16:25:04.860Z,100764.59
2023-09-27T16:27:32.589Z,100755.50
2023-09-27T16:30:00.090Z,100767.63
2023-09-27T16:32:27.961Z,100766.09
2023-09-27T16:34:55.418Z,100761.44
2023-09-27T16:37:22.863Z,100765.44
2023-09-27T16:39:50.697Z,100756.06
2023-09-27T16:42:18.054Z,100763.16
2023-09-27T16:44:45.435Z,100763.22
2023-09-27T16:47:12.839Z,100767.19
2023-09-27T16:49:40.836Z,100766.44
2023-09-27T16:52:08.119Z,100766.44
2023-09-27T16:54:35.468Z,100765.63
2023-09-27T16:57:03.793Z,100770.34
2023-09-27T16:59:31.140Z,100767.59
2023-09-27T17:01:58.644Z,100770.75
2023-09-27T17:04:26.126Z,100769.97
2023-09-27T17:06:53.480Z,100771.53
2023-09-27T17:09:20.788Z,100771.13
2023-09-27T17:11:48.066Z,100775.81
2023-09-27T17:14:15.355Z,100775.84
2023-09-27T17:16:43.055Z,100772.69
2023-09-27T17:19:10.365Z,100769.09
2023-09-27T17:21:39.507Z,100773.41
2023-09-27T17:24:07.081Z,100768.66
2023-09-27T17:26:34.442Z,100770.22
2023-09-27T17:29:01.776Z,100771.41
2023-09-27T17:31:29.199Z,100778.78
2023-09-27T17:33:56.765Z,100770.94
2023-09-27T17:36:24.233Z,100776.44
2023-09-27T17:38:51.520Z,100784.25
2023-09-27T17:41:18.890Z,100772.06
2023-09-27T17:43:46.241Z,100776.34
2023-09-27T17:46:23.219Z,100779.03
2023-09-27T17:48:50.737Z,100775.53
2023-09-27T17:51:18.076Z,100784.53
2023-09-27T17:53:45.471Z,100776.28
2023-09-27T17:56:12.789Z,100779.69
2023-09-27T17:58:40.151Z,100782.72
2023-09-27T18:01:07.523Z,100778.38
2023-09-27T18:03:34.926Z,100778.03
2023-09-27T18:06:06.528Z,100774.63
2023-09-27T18:08:34.096Z,100774.94
2023-09-27T18:11:15.534Z,100775.63
2023-09-27T18:13:43.393Z,100776.78
2023-09-27T18:16:18.078Z,100774.78
2023-09-27T18:18:46.103Z,100773.13
2023-09-27T18:21:13.710Z,100773.50
2023-09-27T18:23:42.424Z,100774.91
2023-09-27T18:26:13.129Z,100769.88
2023-09-27T18:28:40.458Z,100775.34
2023-09-27T18:31:08.379Z,100762.50
2023-09-27T18:33:35.694Z,100771.00
2023-09-27T18:36:03.941Z,100769.72
2023-09-27T18:38:31.259Z,100770.00
2023-09-27T18:40:58.704Z,100775.41
2023-09-27T18:43:26.192Z,100764.34
2023-09-27T18:45:53.768Z,100766.59
2023-09-27T18:48:21.477Z,100768.13
2023-09-27T18:50:50.002Z,100756.34
2023-09-27T18:53:17.660Z,100754.91
2023-09-27T18:55:45.705Z,100760.22
2023-09-27T18:58:15.358Z,100771.56
2023-09-27T19:00:43.062Z,100759.31
2023-09-27T19:03:11.013Z,100753.66
2023-09-27T19:05:38.380Z,100750.88
2023-09-27T19:08:05.862Z,100748.44
2023-09-27T19:10:33.495Z,100750.69
2023-09-27T19:13:00.866Z,100756.06
2023-09-27T19:15:28.237Z,100755.22
2023-09-27T19:17:57.910Z,100755.50
2023-09-27T19:20:25.529Z,100757.38
2023-09-27T19:22:54.077Z,100757.63
2023-09-27T19:25:21.993Z,100761.47
2023-09-27T19:27:49.863Z,100744.63
2023-09-27T19:30:17.347Z,100750.13
2023-09-27T19:32:45.233Z,100753.56
2023-09-27T19:35:16.038Z,100750.00
2023-09-27T19:37:43.714Z,100753.84
2023-09-27T19:40:11.541Z,100753.81
2023-09-27T19:42:38.981Z,100758.50
2023-09-27T19:45:07.009Z,100759.97
2023-09-27T19:47:36.119Z,100761.84
2023-09-27T19:50:05.548Z,100758.50
2023-09-27T19:52:34.065Z,100755.69
2023-09-27T19:55:01.643Z,100770.06
2023-09-27T19:57:29.829Z,100760.94
2023-09-27T19:59:57.179Z,100765.53
2023-09-27T20:02:24.776Z,100773.56
2023-09-27T20:04:54.618Z,100771.50
2023-09-27T20:07:23.479Z,100767.19
2023-09-27T20:09:50.847Z,100766.66
2023-09-27T20:12:18.145Z,100773.88
2023-09-27T20:14:45.505Z,100764.47
2023-09-27T20:17:13.136Z,100748.69
2023-09-27T20:19:40.582Z,100767.97
2023-09-27T20:22:08.229Z,100767.47
2023-09-27T20:24:38.900Z,100769.63
2023-09-27T20:27:06.327Z,100768.56
2023-09-27T20:29:33.677Z,100768.47
2023-09-27T20:32:01.257Z,100765.16
2023-09-27T20:34:28.770Z,100772.25
2023-09-27T20:36:56.069Z,100762.91
2023-09-27T20:39:23.380Z,100772.88
2023-09-27T20:41:50.896Z,100770.44
2023-09-27T20:44:18.256Z,100761.84
2023-09-27T20:46:45.677Z,100761.00
2023-09-27T20:49:13.019Z,100765.66
2023-09-27T20:51:40.404Z,100761.00
2023-09-27T20:54:07.719Z,100758.56
2023-09-27T20:56:34.976Z,100761.38
2023-09-27T20:59:02.402Z,100759.72
2023-09-27T21:01:36.887Z,100752.41
2023-09-27T21:04:04.867Z,100752.47
2023-09-27T21:06:32.282Z,100759.53
2023-09-27T21:09:03.782Z,100761.78
2023-09-27T21:11:31.375Z,100754.88
2023-09-27T21:14:00.520Z,100753.38
2023-09-27T21:16:29.262Z,100761.97
2023-09-27T21:18:56.734Z,100757.34
2023-09-27T21:21:24.172Z,100760.09
2023-09-27T21:23:52.792Z,100753.38
2023-09-27T21:26:20.603Z,100753.25
2023-09-27T21:28:48.021Z,100757.41
2023-09-27T21:31:15.450Z,100762.31
2023-09-27T21:33:43.267Z,100759.88
2023-09-27T21:36:10.593Z,100765.03
2023-09-27T21:38:38.011Z,100753.94
2023-09-27T21:41:05.446Z,100757.69
2023-09-27T21:43:35.638Z,100755.53
2023-09-27T21:46:04.043Z,100758.41
2023-09-27T21:48:31.598Z,100759.28
2023-09-27T21:50:58.871Z,100764.28
2023-09-27T21:53:26.170Z,100763.00
2023-09-27T21:55:54.284Z,100762.41
2023-09-27T21:58:21.679Z,100756.25
2023-09-27T22:00:49.045Z,100761.34
2023-09-27T22:03:18.342Z,100762.91
2023-09-27T22:05:45.895Z,100765.97
2023-09-27T22:08:24.131Z,100763.56
2023-09-27T22:10:51.571Z,100764.06
2023-09-27T22:13:24.877Z,100766.53
2023-09-27T22:15:53.201Z,100767.25
2023-09-27T22:18:21.161Z,100771.91
2023-09-27T22:20:48.872Z,100760.38
2023-09-27T22:23:25.420Z,100762.66
2023-09-27T22:25:54.908Z,100763.38
2023-09-27T22:28:23.124Z,100763.38
2023-09-27T22:30:50.442Z,100767.97
2023-09-27T22:33:26.513Z,100765.53
2023-09-27T22:35:53.774Z,100763.94
2023-09-27T22:38:21.034Z,100759.66
2023-09-27T22:40:48.649Z,100750.19
2023-09-27T22:43:17.373Z,100758.09
2023-09-27T22:45:49.039Z,100753.81
2023-09-27T22:48:17.296Z,100748.56
2023-09-27T22:50:46.060Z,100753.19
2023-09-27T22:53:14.751Z,100753.91
2023-09-27T22:55:51.536Z,100761.09
2023-09-27T22:58:23.395Z,100765.63
2023-09-27T23:00:58.391Z,100766.66
2023-09-27T23:03:30.734Z,100766.22
2023-09-27T23:05:58.453Z,100775.88
2023-09-27T23:08:28.610Z,100761.94
2023-09-27T23:10:58.005Z,100771.41
2023-09-27T23:13:32.384Z,100771.03
2023-09-27T23:16:00.584Z,100775.91
2023-09-27T23:18:30.401Z,100779.50
2023-09-27T23:20:58.881Z,100778.34
2023-09-27T23:23:26.516Z,100777.88
2023-09-27T23:25:55.321Z,100776.50
2023-09-27T23:28:31.641Z,100777.13
2023-09-27T23:31:09.424Z,100782.63
2023-09-27T23:33:43.796Z,100772.84
2023-09-27T23:36:25.347Z,100776.09
2023-09-27T23:38:59.765Z,100769.34
2023-09-27T23:41:31.093Z,100757.25
2023-09-27T23:44:05.881Z,100760.38
2023-09-27T23:46:38.406Z,100762.56
2023-09-27T23:49:06.611Z,100758.47
2023-09-27T23:51:34.165Z,100761.72
2023-09-27T23:54:03.876Z,100765.16
2023-09-27T23:56:31.613Z,100756.69
2023-09-27T23:59:09.859Z,100763.56
